Time;durP1;ratioP1;P1;durP2;ratioP2;P2;SDS_P1;SDS_P2;PMS_P1;PMS_P2;Temp;Humidity;BMP_temperature;BMP_pressure;BME280_temperature;BME280_humidity;BME280_pressure;Samples;Min_cycle;Max_cycle;Signal;HPM_P1;HPM_P2
2023/05/22 00:01:28;;;;;;;20.75;18.65;;;17.20;1.00;;;;;;5046773;28;20208;-63
2023/05/22 00:03:56;;;;;;;23.10;20.80;;;17.30;1.00;;;;;;5033303;28;20761;-64
2023/05/22 00:06:23;;;;;;;23.00;20.55;;;17.20;1.00;;;;;;5050500;28;20550;-64
2023/05/22 00:08:50;;;;;;;23.45;20.23;;;17.20;1.00;;;;;;5042495;28;20237;-64
2023/05/22 00:11:17;;;;;;;22.42;20.02;;;17.20;1.00;;;;;;5046825;28;20744;-65
2023/05/22 00:13:45;;;;;;;22.25;19.80;;;17.20;1.00;;;;;;5038843;28;20776;-65
2023/05/22 00:16:12;;;;;;;22.75;20.50;;;17.10;1.00;;;;;;5047904;28;20203;-64
2023/05/22 00:18:43;;;;;;;23.10;20.40;;;17.00;1.00;;;;;;5048841;28;20183;-65
2023/05/22 00:21:10;;;;;;;23.45;20.52;;;17.00;1.00;;;;;;5023652;28;20927;-64
2023/05/22 00:23:37;;;;;;;24.75;21.52;;;17.00;1.00;;;;;;5048408;28;20195;-64
2023/05/22 00:26:04;;;;;;;23.17;20.75;;;17.00;1.00;;;;;;5045565;28;20199;-65
2023/05/22 00:28:31;;;;;;;23.20;20.80;;;17.00;1.00;;;;;;5047084;28;20823;-66
2023/05/22 00:30:58;;;;;;;25.20;22.15;;;16.90;1.00;;;;;;5032096;28;20191;-64
2023/05/22 00:33:26;;;;;;;26.30;21.88;;;16.90;1.00;;;;;;5040518;28;20211;-65
2023/05/22 00:35:53;;;;;;;24.20;21.60;;;16.90;1.00;;;;;;5031674;28;20583;-65
2023/05/22 00:38:34;;;;;;;26.42;21.70;;;16.90;1.00;;;;;;5046154;28;20289;-65
2023/05/22 00:41:04;;;;;;;25.38;21.05;;;16.80;1.00;;;;;;5023361;28;20635;-64
2023/05/22 00:43:33;;;;;;;25.55;22.40;;;16.70;1.00;;;;;;5043849;28;20661;-65
2023/05/22 00:46:00;;;;;;;22.83;20.40;;;16.80;1.00;;;;;;5024500;28;20637;-64
2023/05/22 00:48:27;;;;;;;22.65;20.30;;;16.80;1.00;;;;;;5045789;28;20616;-64
2023/05/22 00:50:56;;;;;;;24.23;21.33;;;16.80;1.00;;;;;;5027133;28;20203;-65
2023/05/22 00:53:24;;;;;;;25.50;21.40;;;16.70;1.00;;;;;;5026288;28;20199;-64
2023/05/22 00:55:53;;;;;;;22.88;19.98;;;16.60;1.00;;;;;;5022791;28;20207;-64
2023/05/22 00:58:22;;;;;;;22.13;19.90;;;16.40;1.00;;;;;;5013892;28;20196;-65
2023/05/22 01:00:49;;;;;;;23.73;21.35;;;16.30;1.00;;;;;;5030458;28;20196;-64
2023/05/22 01:03:16;;;;;;;23.05;20.70;;;16.40;1.00;;;;;;5042187;23;20236;-63
2023/05/22 01:05:44;;;;;;;23.00;20.70;;;16.50;1.00;;;;;;5064912;28;20246;-61
2023/05/22 01:08:11;;;;;;;23.40;21.10;;;16.50;1.00;;;;;;5046153;28;20192;-60
2023/05/22 01:10:39;;;;;;;23.95;21.52;;;16.50;1.00;;;;;;5050462;28;20555;-61
2023/05/22 01:13:35;;;;;;;24.27;21.77;;;16.50;1.00;;;;;;5034302;28;20556;-61
2023/05/22 01:16:06;;;;;;;24.00;21.45;;;16.50;1.00;;;;;;5071104;28;20870;-61
2023/05/22 01:19:07;;;;;;;24.05;21.65;;;16.60;1.00;;;;;;5048113;28;20221;-61
2023/05/22 01:21:52;;;;;;;24.88;21.58;;;16.70;1.00;;;;;;5034651;28;20201;-60
2023/05/22 01:24:45;;;;;;;24.42;21.85;;;16.70;1.00;;;;;;5080579;28;20659;-61
2023/05/22 01:27:33;;;;;;;23.55;20.80;;;16.80;1.00;;;;;;5011266;28;20682;-60
2023/05/22 01:30:19;;;;;;;23.48;20.80;;;16.70;1.00;;;;;;5055309;28;20293;-59
2023/05/22 01:32:47;;;;;;;24.45;20.42;;;16.80;1.00;;;;;;5058405;28;20199;-59
2023/05/22 01:35:19;;;;;;;24.55;21.05;;;16.80;1.00;;;;;;5076899;28;20268;-60
2023/05/22 01:37:48;;;;;;;22.90;20.60;;;16.70;1.00;;;;;;5068916;28;20733;-60
2023/05/22 01:40:15;;;;;;;22.00;19.67;;;16.80;1.00;;;;;;5071210;28;20201;-60
2023/05/22 01:42:44;;;;;;;21.30;19.15;;;16.80;1.00;;;;;;5033864;28;20736;-60
2023/05/22 01:45:13;;;;;;;21.83;19.58;;;16.90;1.00;;;;;;5075604;28;20209;-60
2023/05/22 01:47:40;;;;;;;22.98;20.58;;;16.90;1.00;;;;;;5054967;28;20205;-59
2023/05/22 01:50:07;;;;;;;19.98;17.95;;;16.90;1.00;;;;;;5057212;28;20260;-60
2023/05/22 01:53:01;;;;;;;22.67;20.02;;;17.00;1.00;;;;;;5056071;28;20195;-63
2023/05/22 01:55:35;;;;;;;20.92;18.73;;;17.00;1.00;;;;;;5039751;28;20302;-60
2023/05/22 01:58:09;;;;;;;20.55;18.60;;;17.00;1.00;;;;;;5032604;28;20261;-62
2023/05/22 02:00:42;;;;;;;21.92;19.63;;;16.90;1.00;;;;;;5048005;28;20205;-59
2023/05/22 02:03:18;;;;;;;22.20;19.88;;;16.90;1.00;;;;;;5053292;28;20218;-61
2023/05/22 02:05:53;;;;;;;23.55;19.83;;;16.70;1.00;;;;;;5036152;28;20211;-61
2023/05/22 02:08:21;;;;;;;21.15;19.13;;;16.50;1.00;;;;;;5036837;28;20672;-61
2023/05/22 02:10:50;;;;;;;20.50;18.45;;;16.20;1.00;;;;;;5043341;28;20191;-61
2023/05/22 02:13:20;;;;;;;21.95;19.60;;;16.20;1.00;;;;;;5035461;28;20540;-61
2023/05/22 02:15:47;;;;;;;28.05;25.15;;;16.40;1.00;;;;;;5055035;28;20279;-61
2023/05/22 02:18:15;;;;;;;23.40;20.92;;;16.50;1.00;;;;;;5035521;28;20199;-60
2023/05/22 02:20:44;;;;;;;22.27;19.88;;;16.50;1.00;;;;;;5030697;28;20597;-60
2023/05/22 02:23:11;;;;;;;22.38;20.20;;;16.50;1.00;;;;;;5043379;28;20668;-61
2023/05/22 02:25:38;;;;;;;21.95;19.83;;;16.60;1.00;;;;;;5037874;28;20219;-60
2023/05/22 02:28:05;;;;;;;21.10;19.10;;;16.60;1.00;;;;;;5036020;28;20663;-63
2023/05/22 02:30:32;;;;;;;22.13;19.85;;;16.60;1.00;;;;;;5042502;28;20188;-60
2023/05/22 02:32:59;;;;;;;22.48;19.80;;;16.60;1.00;;;;;;5035596;28;20191;-61
2023/05/22 02:35:27;;;;;;;23.50;21.02;;;16.50;1.00;;;;;;5039105;28;20208;-60
2023/05/22 02:37:55;;;;;;;21.65;19.45;;;16.50;1.00;;;;;;5037861;28;20212;-61
2023/05/22 02:40:22;;;;;;;24.75;20.90;;;16.20;1.00;;;;;;5027162;28;20202;-61
2023/05/22 02:42:49;;;;;;;22.88;20.60;;;16.10;1.00;;;;;;5036053;28;20310;-62
2023/05/22 02:45:17;;;;;;;36.65;24.02;;;15.90;1.00;;;;;;5019305;28;20210;-60
2023/05/22 02:47:44;;;;;;;28.98;25.30;;;15.80;1.00;;;;;;5018607;28;20226;-61
2023/05/22 02:50:11;;;;;;;25.67;22.98;;;15.70;1.00;;;;;;5044379;28;20199;-60
2023/05/22 02:52:38;;;;;;;26.43;23.67;;;15.70;1.00;;;;;;5056753;28;20188;-61
2023/05/22 02:55:07;;;;;;;27.93;24.93;;;15.90;26.70;;;;;;5040825;28;20621;-61
2023/05/22 02:57:34;;;;;;;26.92;23.98;;;15.90;1.00;;;;;;5031514;28;20195;-60
2023/05/22 03:00:05;;;;;;;27.85;25.00;;;15.90;6.80;;;;;;5043028;28;20779;-60
2023/05/22 03:02:33;;;;;;;26.10;23.27;;;15.90;1.00;;;;;;5033740;28;20564;-60
2023/05/22 03:05:00;;;;;;;27.33;24.42;;;16.00;1.00;;;;;;5045180;28;20804;-61
2023/05/22 03:07:28;;;;;;;26.02;23.30;;;16.00;1.90;;;;;;5051042;28;20214;-60
2023/05/22 03:09:55;;;;;;;28.85;24.10;;;16.00;1.00;;;;;;5049283;28;20195;-61
2023/05/22 03:12:22;;;;;;;26.35;23.50;;;16.00;1.00;;;;;;5046742;28;20223;-60
2023/05/22 03:14:49;;;;;;;25.10;22.55;;;16.00;1.00;;;;;;5055541;28;20656;-61
2023/05/22 03:17:16;;;;;;;24.27;21.67;;;16.00;1.00;;;;;;5059022;28;20802;-61
2023/05/22 03:19:43;;;;;;;25.73;22.80;;;16.00;1.00;;;;;;5055779;28;20672;-60
2023/05/22 03:22:13;;;;;;;26.45;23.73;;;16.00;12.50;;;;;;5034850;28;20263;-61
2023/05/22 03:24:41;;;;;;;27.15;22.48;;;16.00;1.00;;;;;;5029672;28;20578;-60
2023/05/22 03:27:08;;;;;;;25.70;22.98;;;16.00;5.90;;;;;;5042905;28;20223;-60
2023/05/22 03:29:39;;;;;;;25.25;22.58;;;16.00;8.20;;;;;;5035310;28;20729;-60
2023/05/22 03:32:06;;;;;;;26.25;23.42;;;16.00;5.10;;;;;;5042453;28;20649;-60
2023/05/22 03:34:33;;;;;;;25.55;22.88;;;16.00;5.40;;;;;;5037586;28;20190;-60
2023/05/22 03:37:01;;;;;;;26.45;22.42;;;16.00;7.00;;;;;;5042336;28;20286;-61
2023/05/22 03:39:28;;;;;;;25.85;23.15;;;16.00;12.70;;;;;;5029972;28;20196;-60
2023/05/22 03:42:00;;;;;;;25.05;22.02;;;16.00;13.20;;;;;;5027657;28;20633;-63
2023/05/22 03:44:28;;;;;;;27.33;24.35;;;15.90;1.00;;;;;;5031158;28;20223;-60
2023/05/22 03:46:55;;;;;;;29.38;24.27;;;15.70;1.00;;;;;;5031314;28;20293;-59
2023/05/22 03:49:22;;;;;;;37.92;27.05;;;15.70;1.00;;;;;;5031823;28;20226;-60
2023/05/22 03:51:49;;;;;;;33.88;26.75;;;15.70;1.50;;;;;;5031962;28;20672;-60
2023/05/22 03:54:16;;;;;;;34.03;28.07;;;15.70;31.00;;;;;;5014492;28;20762;-60
2023/05/22 03:56:43;;;;;;;37.50;28.17;;;15.70;9.00;;;;;;5033571;28;20203;-61
2023/05/22 03:59:10;;;;;;;110.20;31.87;;;15.60;1.00;;;;;;5028871;28;20219;-61
2023/05/22 04:01:38;;;;;;;71.10;30.15;;;15.60;1.00;;;;;;5038793;28;20223;-60
2023/05/22 04:04:05;;;;;;;94.83;30.07;;;15.60;45.20;;;;;;5029259;28;20304;-59
2023/05/22 04:06:33;;;;;;;63.05;28.70;;;15.50;76.20;;;;;;5035442;28;20221;-60
2023/05/22 04:09:00;;;;;;;114.90;28.50;;;15.50;98.60;;;;;;5036566;28;20747;-60
2023/05/22 04:11:29;;;;;;;64.53;30.63;;;15.40;99.90;;;;;;5045845;28;20269;-63
2023/05/22 04:14:01;;;;;;;44.43;30.27;;;15.50;99.90;;;;;;5053568;28;22614;-59
2023/05/22 04:16:28;;;;;;;44.13;30.70;;;15.50;99.90;;;;;;5029251;28;20202;-60
2023/05/22 04:18:56;;;;;;;52.50;30.02;;;15.80;99.90;;;;;;5037386;28;20248;-60
2023/05/22 04:21:23;;;;;;;66.32;30.58;;;15.70;99.90;;;;;;5035494;28;20212;-61
2023/05/22 04:23:50;;;;;;;77.03;28.50;;;15.90;99.90;;;;;;5034136;28;20213;-60
2023/05/22 04:26:19;;;;;;;48.58;27.55;;;15.90;1.00;;;;;;5036825;28;20211;-61
2023/05/22 04:28:46;;;;;;;55.58;26.73;;;15.80;22.80;;;;;;5043635;28;20772;-60
2023/05/22 04:31:13;;;;;;;52.80;27.48;;;15.70;1.00;;;;;;5022271;28;20298;-60
2023/05/22 04:33:40;;;;;;;48.65;26.52;;;15.80;1.00;;;;;;5031071;28;20707;-60
2023/05/22 04:36:09;;;;;;;46.15;27.15;;;15.90;1.00;;;;;;5029487;28;20203;-60
2023/05/22 04:38:40;;;;;;;33.58;24.98;;;16.00;1.00;;;;;;5011167;28;20192;-60
2023/05/22 04:41:16;;;;;;;33.22;24.88;;;16.00;1.00;;;;;;5040291;28;20284;-61
2023/05/22 04:43:43;;;;;;;28.45;25.40;;;16.10;1.00;;;;;;5019833;28;20196;-61
2023/05/22 04:46:11;;;;;;;26.08;23.33;;;16.30;1.00;;;;;;5041492;28;20287;-60
2023/05/22 04:48:39;;;;;;;22.23;20.00;;;16.40;1.00;;;;;;5043892;28;20233;-60
2023/05/22 04:51:06;;;;;;;20.58;18.48;;;16.60;1.00;;;;;;5038852;28;20326;-61
2023/05/22 04:53:33;;;;;;;20.33;18.38;;;16.70;1.00;;;;;;5029009;28;20229;-61
2023/05/22 04:56:01;;;;;;;19.83;18.00;;;16.80;1.00;;;;;;5027253;28;20206;-60
2023/05/22 04:58:29;;;;;;;23.48;18.88;;;16.80;99.90;;;;;;5031955;28;20188;-61
2023/05/22 05:00:57;;;;;;;33.08;20.33;;;16.70;99.90;;;;;;5038016;28;20191;-60
2023/05/22 05:03:27;;;;;;;25.77;19.52;;;16.60;99.90;;;;;;5048847;28;20235;-61
2023/05/22 05:05:55;;;;;;;22.33;19.63;;;16.70;99.90;;;;;;5059441;28;20191;-61
2023/05/22 05:08:22;;;;;;;29.13;22.30;;;16.50;99.90;;;;;;5029084;28;20208;-61
2023/05/22 05:10:49;;;;;;;46.58;21.75;;;16.40;99.90;;;;;;5035865;28;20207;-61
2023/05/22 05:13:16;;;;;;;50.67;21.95;;;16.50;99.90;;;;;;5012405;28;20207;-60
2023/05/22 05:15:44;;;;;;;56.80;20.33;;;16.60;99.90;;;;;;5033003;28;20375;-61
2023/05/22 05:18:11;;;;;;;23.77;19.58;;;16.70;99.90;;;;;;5034594;28;20210;-61
2023/05/22 05:20:41;;;;;;;27.35;21.08;;;16.70;99.90;;;;;;5029448;28;20192;-61
2023/05/22 05:23:09;;;;;;;26.27;21.02;;;16.60;99.90;;;;;;5045574;28;20645;-61
2023/05/22 05:25:39;;;;;;;23.60;19.98;;;16.70;99.90;;;;;;5035082;28;20227;-62
2023/05/22 05:28:10;;;;;;;102.57;22.88;;;16.80;99.90;;;;;;5034384;28;20198;-62
2023/05/22 05:30:38;;;;;;;24.65;20.30;;;16.70;99.90;;;;;;5010625;28;20282;-61
2023/05/22 05:33:26;;;;;;;38.75;18.80;;;16.80;99.90;;;;;;5049580;28;20849;-61
2023/05/22 05:36:13;;;;;;;26.30;19.20;;;16.90;27.20;;;;;;5028313;28;20194;-62
2023/05/22 05:38:40;;;;;;;19.67;17.77;;;17.00;39.50;;;;;;5029688;28;20542;-61
2023/05/22 05:41:08;;;;;;;19.63;17.92;;;17.10;1.00;;;;;;5027363;28;20195;-62
2023/05/22 05:43:36;;;;;;;18.60;16.67;;;17.30;1.00;;;;;;5027027;28;20245;-61
2023/05/22 05:46:06;;;;;;;18.58;16.98;;;16.90;1.00;;;;;;5027569;28;20188;-61
2023/05/22 05:48:33;;;;;;;18.15;16.58;;;17.00;1.00;;;;;;5036509;28;20625;-62
2023/05/22 05:51:00;;;;;;;18.88;17.17;;;16.90;1.00;;;;;;5036662;28;20293;-61
2023/05/22 05:53:32;;;;;;;20.15;17.52;;;16.90;1.00;;;;;;5034816;28;20199;-64
2023/05/22 05:55:59;;;;;;;35.88;18.02;;;17.00;1.00;;;;;;5029459;28;20202;-61
2023/05/22 05:58:29;;;;;;;31.30;18.48;;;17.30;1.00;;;;;;5027060;28;20196;-61
2023/05/22 06:01:05;;;;;;;21.48;19.48;;;17.40;1.00;;;;;;5033773;28;20567;-62
2023/05/22 06:03:32;;;;;;;182.63;20.20;;;17.80;1.00;;;;;;5035331;28;20235;-63
2023/05/22 06:06:19;;;;;;;21.80;19.30;;;17.40;1.00;;;;;;5028032;28;20677;-64
2023/05/22 06:09:05;;;;;;;26.45;19.02;;;17.30;1.00;;;;;;5038110;28;20210;-62
2023/05/22 06:11:45;;;;;;;34.25;18.83;;;17.10;1.00;;;;;;5002430;28;20196;-62
2023/05/22 06:14:12;;;;;;;30.42;20.65;;;17.00;1.00;;;;;;5008913;28;20556;-61
2023/05/22 06:16:39;;;;;;;26.27;19.73;;;17.10;1.00;;;;;;4991713;28;20202;-62
2023/05/22 06:19:06;;;;;;;31.42;18.60;;;17.00;1.00;;;;;;5018121;28;20210;-62
2023/05/22 06:21:34;;;;;;;25.15;18.27;;;17.10;1.00;;;;;;5013501;28;20200;-63
2023/05/22 06:24:01;;;;;;;28.05;18.58;;;16.90;1.00;;;;;;5003816;28;20204;-62
2023/05/22 06:26:29;;;;;;;75.35;18.27;;;17.20;1.00;;;;;;5025010;28;20209;-62
2023/05/22 06:28:56;;;;;;;22.13;20.05;;;17.20;1.00;;;;;;5027230;28;20965;-62
2023/05/22 06:31:23;;;;;;;36.97;19.60;;;17.30;1.00;;;;;;5014329;28;20601;-61
2023/05/22 06:33:54;;;;;;;26.63;18.92;;;17.30;1.00;;;;;;5016103;28;20188;-61
2023/05/22 06:36:23;;;;;;;29.42;19.75;;;17.60;1.00;;;;;;4994256;28;20187;-62
2023/05/22 06:38:53;;;;;;;19.55;17.23;;;18.00;1.00;;;;;;5010767;28;20816;-62
2023/05/22 06:41:40;;;;;;;18.45;16.55;;;18.60;1.00;;;;;;5025265;28;20665;-63
2023/05/22 06:44:11;;;;;;;43.22;16.80;;;19.20;1.00;;;;;;4992645;28;20630;-62
2023/05/22 06:46:39;;;;;;;19.25;16.30;;;19.60;1.00;;;;;;5006850;28;20565;-61
2023/05/22 06:49:06;;;;;;;18.25;16.35;;;19.80;1.00;;;;;;5007685;28;20694;-62
2023/05/22 06:51:45;;;;;;;19.02;17.23;;;20.30;1.00;;;;;;5006264;28;20287;-62
2023/05/22 06:54:14;;;;;;;18.13;16.42;;;20.90;99.90;;;;;;5021517;28;20204;-63
2023/05/22 06:56:44;;;;;;;17.90;16.17;;;21.00;99.90;;;;;;5008124;28;20188;-62
2023/05/22 06:59:15;;;;;;;19.60;17.40;;;21.20;99.90;;;;;;5025465;28;20187;-65
2023/05/22 07:01:51;;;;;;;17.75;15.95;;;20.60;99.90;;;;;;5023998;28;20239;-62
2023/05/22 07:04:32;;;;;;;18.83;16.98;;;21.10;99.90;;;;;;5016708;28;20236;-63
2023/05/22 07:07:04;;;;;;;17.65;15.80;;;21.30;99.90;;;;;;5005969;28;20331;-66
2023/05/22 07:09:33;;;;;;;17.50;15.88;;;22.20;99.90;;;;;;5004780;28;20287;-62
2023/05/22 07:12:02;;;;;;;15.25;13.75;;;23.50;99.90;;;;;;5007584;28;20208;-63
2023/05/22 07:14:29;;;;;;;14.95;13.65;;;25.20;99.90;;;;;;5023193;28;20227;-63
2023/05/22 07:16:56;;;;;;;15.73;14.15;;;26.50;99.90;;;;;;5021454;28;20212;-63
2023/05/22 07:19:32;;;;;;;16.02;14.52;;;27.20;99.90;;;;;;5006079;28;20203;-63
2023/05/22 07:22:02;;;;;;;15.77;14.35;;;26.40;99.90;;;;;;5019544;28;20684;-63
2023/05/22 07:24:31;;;;;;;16.13;14.52;;;26.50;99.90;;;;;;5035538;28;20568;-63
2023/05/22 07:27:00;;;;;;;15.75;14.23;;;26.40;99.90;;;;;;5023621;28;20265;-63
2023/05/22 07:29:27;;;;;;;15.80;14.40;;;26.60;99.90;;;;;;5020446;28;20679;-63
2023/05/22 07:31:57;;;;;;;16.48;14.93;;;26.60;99.90;;;;;;5038226;28;20598;-62
2023/05/22 07:34:30;;;;;;;16.13;14.52;;;26.30;99.90;;;;;;5038276;28;20195;-62
2023/05/22 07:36:59;;;;;;;17.75;16.20;;;26.30;99.90;;;;;;5021621;28;20338;-62
2023/05/22 07:39:26;;;;;;;17.25;15.70;;;25.20;99.90;;;;;;5039448;28;20198;-62
2023/05/22 07:41:55;;;;;;;18.67;16.55;;;25.50;99.90;;;;;;5020579;28;20231;-62
2023/05/22 07:44:25;;;;;;;17.30;15.52;;;24.80;99.90;;;;;;5037307;28;20297;-62
2023/05/22 07:46:54;;;;;;;17.13;15.63;;;26.60;99.90;;;;;;5041367;28;20199;-63
2023/05/22 07:49:23;;;;;;;16.17;14.65;;;28.30;99.90;;;;;;5019956;28;20192;-64
2023/05/22 07:51:50;;;;;;;16.48;15.02;;;29.70;99.90;;;;;;5030597;28;20868;-63
2023/05/22 07:54:19;;;;;;;17.90;16.20;;;30.90;99.90;;;;;;5008276;28;20199;-64
2023/05/22 07:56:50;;;;;;;17.65;15.68;;;28.60;99.90;;;;;;5038701;28;20314;-62
2023/05/22 07:59:20;;;;;;;15.88;14.48;;;28.30;99.90;;;;;;5004607;28;20331;-63
2023/05/22 08:01:47;;;;;;;17.30;15.55;;;30.40;99.90;;;;;;5019438;28;20210;-63
2023/05/22 08:04:14;;;;;;;16.80;15.30;;;32.10;99.90;;;;;;5019004;28;20232;-63
2023/05/22 08:06:43;;;;;;;16.48;14.85;;;33.20;99.90;;;;;;5035229;28;20375;-63
2023/05/22 08:09:12;;;;;;;15.63;13.57;;;34.50;99.90;;;;;;5030463;28;20306;-63
2023/05/22 08:11:41;;;;;;;15.82;14.40;;;35.30;99.90;;;;;;5021484;28;20207;-63
2023/05/22 08:14:08;;;;;;;17.63;16.13;;;35.80;99.90;;;;;;5038143;28;20194;-63
2023/05/22 08:16:35;;;;;;;18.48;16.73;;;29.80;99.90;;;;;;5009824;28;20235;-62
2023/05/22 08:19:02;;;;;;;17.67;16.08;;;28.00;99.90;;;;;;5018958;28;20196;-63
2023/05/22 08:21:33;;;;;;;18.52;16.83;;;28.40;99.90;;;;;;5016968;28;20802;-62
2023/05/22 08:24:03;;;;;;;18.55;16.45;;;30.00;99.90;;;;;;5001168;28;20192;-63
2023/05/22 08:26:32;;;;;;;18.77;16.88;;;31.00;99.90;;;;;;5001247;28;20204;-62
2023/05/22 08:29:00;;;;;;;19.25;17.50;;;31.50;99.90;;;;;;4997325;28;20216;-61
2023/05/22 08:31:28;;;;;;;18.95;17.20;;;30.00;99.90;;;;;;5017320;28;21743;-60
2023/05/22 08:34:01;;;;;;;18.27;16.38;;;29.70;99.90;;;;;;5015178;28;20200;-62
2023/05/22 08:36:32;;;;;;;18.00;15.98;;;31.40;99.90;;;;;;5000483;28;20189;-61
2023/05/22 08:39:00;;;;;;;17.52;15.82;;;33.20;99.90;;;;;;5017096;28;20193;-61
2023/05/22 08:41:28;;;;;;;18.27;16.50;;;35.00;99.90;;;;;;5017402;28;20207;-62
2023/05/22 08:43:55;;;;;;;19.20;16.58;;;33.60;99.90;;;;;;5001296;28;20275;-61
2023/05/22 08:46:27;;;;;;;19.17;16.20;;;32.60;99.90;;;;;;5010356;28;20282;-62
2023/05/22 08:48:57;;;;;;;18.98;17.17;;;34.90;99.90;;;;;;5006925;28;20222;-62
2023/05/22 08:51:30;;;;;;;17.17;15.70;;;33.80;99.90;;;;;;5014883;28;20840;-63
2023/05/22 08:53:58;;;;;;;19.25;17.35;;;32.80;99.90;;;;;;4999988;28;20200;-61
2023/05/22 08:56:25;;;;;;;17.55;15.82;;;33.40;99.90;;;;;;5017204;28;20720;-62
2023/05/22 08:58:57;;;;;;;17.88;16.00;;;35.10;99.90;;;;;;4997488;28;20734;-61
2023/05/22 09:01:24;;;;;;;19.42;17.73;;;34.50;99.90;;;;;;5014609;28;20234;-62
2023/05/22 09:03:51;;;;;;;17.20;15.50;;;34.60;99.90;;;;;;5014901;28;20235;-62
2023/05/22 09:06:18;;;;;;;17.98;16.13;;;34.20;99.90;;;;;;5017788;28;20198;-62
2023/05/22 09:08:45;;;;;;;18.92;17.13;;;35.10;99.90;;;;;;5009579;28;20219;-62
2023/05/22 09:11:15;;;;;;;19.90;17.75;;;35.80;99.90;;;;;;5011449;28;20200;-61
2023/05/22 09:13:43;;;;;;;17.90;16.10;;;36.90;99.90;;;;;;4999412;28;20207;-62
2023/05/22 09:16:11;;;;;;;17.85;16.20;;;37.70;99.90;;;;;;5016977;28;20211;-62
2023/05/22 09:18:40;;;;;;;16.00;14.27;;;37.80;99.90;;;;;;5016933;28;20207;-62
2023/05/22 09:21:09;;;;;;;19.23;17.48;;;38.00;99.90;;;;;;5019244;28;20192;-62
2023/05/22 09:23:59;;;;;;;18.42;16.65;;;37.20;99.90;;;;;;5014438;28;20448;-61
2023/05/22 09:26:31;;;;;;;18.45;16.73;;;36.60;99.90;;;;;;5016486;28;20728;-62
2023/05/22 09:28:59;;;;;;;18.05;16.35;;;35.50;99.90;;;;;;5014796;28;20211;-62
2023/05/22 09:31:28;;;;;;;16.88;15.23;;;35.10;99.90;;;;;;5018893;28;20630;-62
2023/05/22 09:33:57;;;;;;;19.95;17.85;;;34.70;99.90;;;;;;5019191;28;20196;-61
2023/05/22 09:36:33;;;;;;;15.80;14.40;;;35.00;99.90;;;;;;5018253;28;20188;-62
2023/05/22 09:39:01;;;;;;;14.93;13.43;;;36.20;99.90;;;;;;4998216;28;20262;-63
2023/05/22 09:41:29;;;;;;;14.57;13.07;;;37.10;99.90;;;;;;5019346;28;20203;-63
2023/05/22 09:43:57;;;;;;;16.25;14.55;;;36.60;99.90;;;;;;5000862;28;20211;-63
2023/05/22 09:46:27;;;;;;;15.68;13.32;;;36.00;99.90;;;;;;4996961;28;20204;-63
2023/05/22 09:48:54;;;;;;;18.35;16.58;;;36.10;99.90;;;;;;5013063;28;20215;-62
2023/05/22 09:51:25;;;;;;;19.60;17.65;;;34.70;99.90;;;;;;5017893;28;20223;-63
2023/05/22 09:54:02;;;;;;;17.75;16.02;;;32.80;99.90;;;;;;5014282;28;20274;-62
2023/05/22 09:56:31;;;;;;;16.90;15.20;;;31.70;99.90;;;;;;5001351;28;20216;-63
2023/05/22 09:59:08;;;;;;;18.90;15.93;;;33.00;99.90;;;;;;5018951;28;20199;-63
2023/05/22 10:01:37;;;;;;;19.15;16.42;;;32.80;99.90;;;;;;5003337;28;20640;-62
2023/05/22 10:04:07;;;;;;;19.55;17.65;;;32.20;99.90;;;;;;5018749;28;20633;-63
2023/05/22 10:06:36;;;;;;;20.10;18.05;;;32.10;99.90;;;;;;5004701;28;20204;-63
2023/05/22 10:09:08;;;;;;;18.30;16.52;;;31.90;99.90;;;;;;5002564;28;20282;-63
2023/05/22 10:11:36;;;;;;;19.92;17.88;;;31.30;99.90;;;;;;5023322;28;20541;-63
2023/05/22 10:14:03;;;;;;;19.77;17.67;;;30.90;99.90;;;;;;5003868;28;20200;-63
2023/05/22 10:16:32;;;;;;;17.52;15.73;;;31.00;99.90;;;;;;5023083;28;20212;-64
2023/05/22 10:19:00;;;;;;;18.48;16.48;;;32.60;99.90;;;;;;5003291;28;20203;-64
2023/05/22 10:21:31;;;;;;;18.17;16.25;;;34.00;99.90;;;;;;5019975;28;20271;-63
2023/05/22 10:24:00;;;;;;;17.73;16.02;;;35.70;99.90;;;;;;5020225;28;20203;-64
2023/05/22 10:26:28;;;;;;;19.35;17.55;;;37.00;99.90;;;;;;5021512;28;20291;-63
2023/05/22 10:29:11;;;;;;;17.73;16.02;;;37.00;99.90;;;;;;5018827;28;20218;-63
2023/05/22 10:32:20;;;;;;;17.67;15.98;;;37.40;99.90;;;;;;5002212;28;20188;-63
2023/05/22 10:35:00;;;;;;;18.20;16.42;;;37.50;99.90;;;;;;4939465;28;20202;-62
2023/05/22 10:37:55;;;;;;;17.98;16.27;;;37.40;99.90;;;;;;4983355;28;20196;-63
2023/05/22 10:40:34;;;;;;;17.48;15.88;;;37.30;99.90;;;;;;5018495;28;20200;-62
2023/05/22 10:43:04;;;;;;;18.92;17.10;;;37.30;99.90;;;;;;5020255;28;20523;-62
2023/05/22 10:45:31;;;;;;;19.27;17.58;;;36.00;99.90;;;;;;5002626;28;20294;-62
2023/05/22 10:48:11;;;;;;;19.17;17.48;;;35.40;99.90;;;;;;5020840;28;20223;-62
2023/05/22 10:50:38;;;;;;;19.92;18.02;;;35.10;99.90;;;;;;5016987;28;20198;-63
2023/05/22 10:53:21;;;;;;;20.77;17.08;;;34.90;99.90;;;;;;5019472;28;20672;-64
2023/05/22 10:55:55;;;;;;;18.20;16.60;;;36.10;99.90;;;;;;5018591;28;20726;-63
2023/05/22 10:58:30;;;;;;;19.77;18.08;;;36.60;99.90;;;;;;5003144;28;20316;-63
2023/05/22 11:01:11;;;;;;;18.15;16.27;;;36.30;99.90;;;;;;5015901;28;20652;-63
2023/05/22 11:04:01;;;;;;;18.35;16.50;;;36.10;99.90;;;;;;5018123;28;20307;-63
2023/05/22 11:06:38;;;;;;;17.23;15.73;;;36.50;99.90;;;;;;5017691;28;20218;-63
2023/05/22 11:09:30;;;;;;;18.30;16.50;;;37.10;99.90;;;;;;5018099;28;20699;-62
2023/05/22 11:12:19;;;;;;;17.02;15.30;;;36.40;99.90;;;;;;5020589;28;20196;-64
2023/05/22 11:14:50;;;;;;;16.50;14.85;;;36.10;99.90;;;;;;5018203;28;20729;-62
2023/05/22 11:17:22;;;;;;;17.13;15.40;;;35.90;99.90;;;;;;4985364;28;20585;-63
2023/05/22 11:20:06;;;;;;;18.30;16.30;;;35.80;99.90;;;;;;5001653;28;20259;-63
2023/05/22 11:22:41;;;;;;;17.88;16.10;;;35.20;99.90;;;;;;5001252;28;20567;-63
2023/05/22 11:25:16;;;;;;;18.50;16.65;;;35.10;99.90;;;;;;5019924;28;20192;-63
2023/05/22 11:27:45;;;;;;;19.98;18.15;;;35.00;99.90;;;;;;5018109;28;20199;-63
2023/05/22 11:30:13;;;;;;;18.00;15.77;;;35.50;99.90;;;;;;5017718;28;20188;-62
2023/05/22 11:32:44;;;;;;;18.85;16.52;;;35.30;99.90;;;;;;5000945;28;20200;-61
2023/05/22 11:35:16;;;;;;;18.33;16.70;;;34.80;99.90;;;;;;5019942;28;20232;-62
2023/05/22 11:37:44;;;;;;;19.50;17.50;;;34.70;99.90;;;;;;5009780;28;20640;-62
2023/05/22 11:40:25;;;;;;;19.65;17.65;;;35.10;99.90;;;;;;4986431;28;20555;-62
2023/05/22 11:42:52;;;;;;;17.67;15.98;;;35.50;99.90;;;;;;5006796;28;20203;-62
2023/05/22 11:45:20;;;;;;;16.95;15.35;;;35.40;99.90;;;;;;5016885;28;20207;-62
2023/05/22 11:47:48;;;;;;;16.65;15.13;;;34.10;99.90;;;;;;5000952;28;20196;-62
2023/05/22 11:50:15;;;;;;;17.63;15.98;;;34.10;99.90;;;;;;4998520;28;20261;-62
2023/05/22 11:52:52;;;;;;;18.75;16.80;;;34.70;99.90;;;;;;5019791;28;20183;-62
2023/05/22 11:55:19;;;;;;;16.50;14.77;;;34.80;99.90;;;;;;5013827;28;20290;-62
2023/05/22 11:57:47;;;;;;;17.00;15.25;;;35.90;99.90;;;;;;4995915;28;20669;-62
2023/05/22 12:00:15;;;;;;;16.25;14.73;;;36.00;99.90;;;;;;4996293;28;20294;-62
2023/05/22 12:02:46;;;;;;;17.90;16.08;;;35.80;99.90;;;;;;4986267;28;20199;-62
2023/05/22 12:05:15;;;;;;;16.55;14.95;;;35.60;99.90;;;;;;4998177;28;20361;-62
2023/05/22 12:07:42;;;;;;;18.27;16.38;;;35.10;99.90;;;;;;5015962;28;20206;-62
2023/05/22 12:10:10;;;;;;;17.38;15.75;;;34.80;99.90;;;;;;4998719;28;20720;-62
2023/05/22 12:12:37;;;;;;;17.30;15.70;;;34.40;99.90;;;;;;5001501;28;20224;-62
2023/05/22 12:15:06;;;;;;;16.55;14.93;;;35.10;99.90;;;;;;5016647;28;20207;-63
2023/05/22 12:17:36;;;;;;;16.13;14.63;;;35.10;99.90;;;;;;4999569;28;20693;-62
2023/05/22 12:20:04;;;;;;;16.88;15.27;;;34.20;99.90;;;;;;4998721;28;20526;-62
2023/05/22 12:22:31;;;;;;;16.92;15.18;;;33.30;99.90;;;;;;5019707;28;20236;-62
2023/05/22 12:24:58;;;;;;;16.42;14.82;;;33.50;99.90;;;;;;5016211;28;20240;-63
2023/05/22 12:27:30;;;;;;;15.10;13.68;;;33.60;99.90;;;;;;5015508;28;20196;-62
2023/05/22 12:30:09;;;;;;;16.80;14.55;;;33.60;99.90;;;;;;5010749;28;20659;-62
2023/05/22 12:32:36;;;;;;;17.15;15.55;;;33.20;99.90;;;;;;5000793;28;20207;-64
2023/05/22 12:35:03;;;;;;;17.77;15.68;;;32.40;99.90;;;;;;5017507;28;20212;-62
2023/05/22 12:37:32;;;;;;;17.83;15.68;;;32.50;99.90;;;;;;5001030;28;20279;-62
2023/05/22 12:40:02;;;;;;;18.48;16.55;;;32.40;99.90;;;;;;5015781;28;20677;-62
2023/05/22 12:42:29;;;;;;;17.27;15.68;;;32.30;99.90;;;;;;5016877;28;20437;-62
2023/05/22 12:44:57;;;;;;;17.90;16.08;;;32.00;99.90;;;;;;5002682;28;20868;-62
2023/05/22 12:47:24;;;;;;;18.38;16.67;;;31.90;99.90;;;;;;4998447;28;20204;-62